Smithfield - 24 Hour Table
Date & TimeSolar
Radiation
(W/m²)
Wind
Speed
(mph)
Wind
Direction
(degrees)
Air
Temperature
(°F)
Relative
Humidity
(%)
Precipitation
(inches)
Max
Wind
Speed
(mph)
2020/11/25 17:00 17 4.5 346 38.3 51 0.00 11.0
2020/11/25 16:00 116 3.8 21 39.3 51 0.00 8.8
2020/11/25 15:00 223 6.0 345 39.5 50 0.00 12.1
2020/11/25 14:00 290 6.7 201 41.4 44 0.00 11.7
2020/11/25 13:00 542 4.2 242 40.1 46 0.00 10.6
2020/11/25 12:00 317 3.2 307 34.8 54 0.00 7.8
2020/11/25 11:00 363 4.5 345 32.1 62 0.00 9.2
2020/11/25 10:00 255 2.5 324 26.8 78 0.00 7.8
2020/11/25 09:00 79 1.8 358 23.9 84 0.00 4.6
2020/11/25 08:00 14 2.6 52 22.5 84 0.00 4.2
2020/11/25 07:00 0 3.5 59 22.1 86 0.00 5.3
2020/11/25 06:00 0 2.9 59 22.3 86 0.00 4.6
2020/11/25 05:00 0 2.6 47 22.7 86 0.00 4.6
2020/11/25 04:00 0 2.5 59 23.5 84 0.00 5.3
2020/11/25 03:00 0 2.3 49 24.7 82 0.00 4.6
2020/11/25 02:00 0 3.3 52 25.5 79 0.00 4.9
2020/11/25 01:00 0 2.0 74 25.9 81 0.00 4.2
2020/11/25 00:00 0 2.3 347 28.1 75 0.00 6.7
2020/11/24 23:00 0 3.4 62 28.5 69 0.00 4.9
2020/11/24 22:00 0 3.5 83 28.8 70 0.00 7.1
2020/11/24 21:00 0 3.4 62 30.1 73 0.00 4.9
2020/11/24 20:00 0 2.5 69 32.3 67 0.00 3.8
2020/11/24 19:00 0 2.3 89 32.3 66 0.00 4.2
2020/11/24 18:00 0 0.7 30 32.7 65 0.00 2.4